createdAt,value
2017-07-04T00:04:24.434Z,55.10
2017-07-04T00:06:51.933Z,55.10
2017-07-04T00:09:19.438Z,55.10
2017-07-04T00:11:46.961Z,55.10
2017-07-04T00:14:15.242Z,55.30
2017-07-04T00:16:42.779Z,55.30
2017-07-04T00:19:10.288Z,55.30
2017-07-04T00:21:37.792Z,55.60
2017-07-04T00:24:05.306Z,55.30
2017-07-04T00:26:32.811Z,55.50
2017-07-04T00:29:00.330Z,55.40
2017-07-04T00:31:27.830Z,55.60
2017-07-04T00:33:55.339Z,55.50
2017-07-04T00:36:22.857Z,55.50
2017-07-04T00:38:50.362Z,55.70
2017-07-04T00:41:17.887Z,55.60
2017-07-04T00:43:46.159Z,55.70
2017-07-04T00:46:13.669Z,55.60
2017-07-04T00:48:41.182Z,55.70
2017-07-04T00:51:09.451Z,55.70
2017-07-04T00:53:37.739Z,56.10
2017-07-04T00:56:06.007Z,55.70
2017-07-04T00:58:34.283Z,56.20
2017-07-04T01:01:02.566Z,55.30
2017-07-04T01:03:30.822Z,55.80
2017-07-04T01:05:58.342Z,55.50
2017-07-04T01:08:25.842Z,55.50
2017-07-04T01:10:53.343Z,55.50
2017-07-04T01:13:20.859Z,55.60
2017-07-04T01:15:48.358Z,55.60
2017-07-04T01:18:15.882Z,56.00
2017-07-04T01:20:43.377Z,55.40
2017-07-04T01:23:10.878Z,55.30
2017-07-04T01:25:38.398Z,55.30
2017-07-04T01:28:05.899Z,55.20
2017-07-04T01:30:33.443Z,55.20
2017-07-04T01:33:00.947Z,55.10
2017-07-04T01:35:29.231Z,55.10
2017-07-04T01:37:56.758Z,55.00
2017-07-04T01:40:24.257Z,55.10
2017-07-04T01:42:51.785Z,55.10
2017-07-04T01:45:19.278Z,55.10
2017-07-04T01:47:46.786Z,55.10
2017-07-04T01:50:14.309Z,55.00
2017-07-04T01:52:41.826Z,55.10
2017-07-04T01:55:09.353Z,55.00
2017-07-04T01:57:36.863Z,55.20
2017-07-04T02:00:04.367Z,55.10
2017-07-04T02:02:31.896Z,55.10
2017-07-04T02:04:59.393Z,55.00
2017-07-04T02:07:26.915Z,55.00
2017-07-04T02:09:54.433Z,55.00
2017-07-04T02:12:21.937Z,55.00
2017-07-04T02:14:49.454Z,54.90
2017-07-04T02:17:16.969Z,54.80
2017-07-04T02:19:44.499Z,54.80
2017-07-04T02:22:11.998Z,54.90
2017-07-04T02:24:39.511Z,54.90
2017-07-04T02:27:07.790Z,54.70
2017-07-04T02:29:36.054Z,54.70
2017-07-04T02:32:04.342Z,54.90
2017-07-04T02:34:31.855Z,54.60
2017-07-04T02:36:59.371Z,54.70
2017-07-04T02:39:26.899Z,54.70
2017-07-04T02:41:54.407Z,54.70
2017-07-04T02:44:21.939Z,54.70
2017-07-04T02:46:50.255Z,54.60
2017-07-04T02:49:17.759Z,54.60
2017-07-04T02:51:46.046Z,54.80
2017-07-04T02:54:13.544Z,54.60
2017-07-04T02:56:41.066Z,54.60
2017-07-04T02:59:08.571Z,54.50
2017-07-04T03:01:36.071Z,54.60
2017-07-04T03:04:04.367Z,55.20
2017-07-04T03:06:32.631Z,54.70
2017-07-04T03:09:00.922Z,54.70
2017-07-04T03:11:29.194Z,54.70
2017-07-04T03:13:57.454Z,54.80
2017-07-04T03:16:24.978Z,54.70
2017-07-04T03:18:52.474Z,54.70
2017-07-04T03:21:19.999Z,54.70
2017-07-04T03:23:47.502Z,54.80
2017-07-04T03:26:15.771Z,54.80
2017-07-04T03:28:43.282Z,54.80
2017-07-04T03:31:10.785Z,54.70
2017-07-04T03:33:39.078Z,54.40
2017-07-04T03:36:07.341Z,54.90
2017-07-04T03:38:35.607Z,55.00
2017-07-04T03:41:03.138Z,54.90
2017-07-04T03:43:30.634Z,54.90
2017-07-04T03:45:58.176Z,55.00
2017-07-04T03:48:25.677Z,55.00
2017-07-04T03:50:53.181Z,55.10
2017-07-04T03:53:20.697Z,55.20
2017-07-04T03:55:48.202Z,55.00
2017-07-04T03:58:15.726Z,55.00
2017-07-04T04:00:43.231Z,55.10
2017-07-04T04:03:10.729Z,55.20
2017-07-04T04:05:38.246Z,55.30
2017-07-04T04:08:05.747Z,55.30
2017-07-04T04:10:33.273Z,55.30
2017-07-04T04:13:00.774Z,55.30
2017-07-04T04:15:28.294Z,55.40
2017-07-04T04:17:55.823Z,55.50
2017-07-04T04:20:23.332Z,55.50
2017-07-04T04:22:50.854Z,55.50
2017-07-04T04:25:18.357Z,55.50
2017-07-04T04:27:45.863Z,55.50
2017-07-04T04:30:13.394Z,55.50
2017-07-04T04:32:40.915Z,55.40
2017-07-04T04:35:08.454Z,55.40
2017-07-04T04:37:35.955Z,55.30
2017-07-04T04:40:03.478Z,55.30
2017-07-04T04:42:31.010Z,55.30
2017-07-04T04:44:58.506Z,55.30
2017-07-04T04:47:26.038Z,55.20
2017-07-04T04:49:53.550Z,55.20
2017-07-04T04:52:21.070Z,55.20
2017-07-04T04:54:48.616Z,55.10
2017-07-04T04:57:16.114Z,55.10
2017-07-04T04:59:44.406Z,55.10
2017-07-04T05:02:11.906Z,55.10
2017-07-04T05:04:39.410Z,55.20
2017-07-04T05:07:06.923Z,55.40
2017-07-04T05:09:34.442Z,55.50
2017-07-04T05:12:01.970Z,55.50
2017-07-04T05:14:29.478Z,55.40
2017-07-04T05:16:56.982Z,55.20
2017-07-04T05:19:24.511Z,55.10
2017-07-04T05:21:52.009Z,55.00
2017-07-04T05:24:20.308Z,55.50
2017-07-04T05:26:47.805Z,54.90
2017-07-04T05:29:15.324Z,54.80
2017-07-04T05:31:42.851Z,54.90
2017-07-04T05:34:10.358Z,54.70
2017-07-04T05:36:37.874Z,54.10
2017-07-04T05:39:05.375Z,53.60
2017-07-04T05:41:32.894Z,53.30
2017-07-04T05:44:00.406Z,53.20
2017-07-04T05:46:27.910Z,52.80
2017-07-04T05:48:55.435Z,52.70
2017-07-04T05:51:22.950Z,52.10
2017-07-04T05:53:51.210Z,51.40
2017-07-04T05:56:18.738Z,51.30
2017-07-04T05:58:46.250Z,50.60
2017-07-04T06:01:13.771Z,50.40
2017-07-04T06:03:41.269Z,50.20
2017-07-04T06:06:08.762Z,49.50
2017-07-04T06:08:36.282Z,48.80
2017-07-04T06:11:03.790Z,48.60
2017-07-04T06:13:31.316Z,48.70
2017-07-04T06:15:58.810Z,48.40
2017-07-04T06:18:26.316Z,48.30
2017-07-04T06:20:53.846Z,48.50
2017-07-04T06:23:21.363Z,48.40
2017-07-04T06:25:49.206Z,47.30
2017-07-04T06:28:17.468Z,47.40
2017-07-04T06:30:45.736Z,48.20
2017-07-04T06:33:13.256Z,47.40
2017-07-04T06:35:40.767Z,47.60
2017-07-04T06:38:08.332Z,47.20
2017-07-04T06:40:36.595Z,46.60
2017-07-04T06:43:05.679Z,44.90
2017-07-04T06:45:33.207Z,44.80
2017-07-04T06:48:00.718Z,44.60
2017-07-04T06:50:28.243Z,44.80
2017-07-04T06:52:55.739Z,44.40
2017-07-04T06:55:24.010Z,44.50
2017-07-04T06:57:52.304Z,44.80
2017-07-04T07:00:19.798Z,44.70
2017-07-04T07:02:47.325Z,44.30
2017-07-04T07:05:14.828Z,43.50
2017-07-04T07:07:42.331Z,43.80
2017-07-04T07:10:10.611Z,44.70
2017-07-04T07:12:38.106Z,44.70
2017-07-04T07:15:05.633Z,44.90
2017-07-04T07:17:33.126Z,44.60
2017-07-04T07:20:00.623Z,44.70
2017-07-04T07:22:28.138Z,45.10
2017-07-04T07:24:55.639Z,45.60
2017-07-04T07:27:23.149Z,45.60
2017-07-04T07:29:50.655Z,46.10
2017-07-04T07:32:18.152Z,46.70
2017-07-04T07:34:45.671Z,46.50
2017-07-04T07:37:13.165Z,45.90
2017-07-04T07:39:40.689Z,46.00
2017-07-04T07:42:08.193Z,45.80
2017-07-04T07:44:36.701Z,46.00
2017-07-04T07:47:04.194Z,45.70
2017-07-04T07:49:31.694Z,45.50
2017-07-04T07:51:59.212Z,45.30
2017-07-04T07:54:26.710Z,45.60
2017-07-04T07:56:54.258Z,45.60
2017-07-04T07:59:22.523Z,45.50
2017-07-04T08:01:50.794Z,45.20
2017-07-04T08:04:19.075Z,45.20
2017-07-04T08:06:46.574Z,45.20
2017-07-04T08:09:14.115Z,44.20
2017-07-04T08:11:41.618Z,44.70
2017-07-04T08:14:09.123Z,45.00
2017-07-04T08:16:37.402Z,44.70
2017-07-04T08:19:04.898Z,45.30
2017-07-04T08:21:32.430Z,44.60
2017-07-04T08:23:59.943Z,44.50
2017-07-04T08:26:27.452Z,44.90
2017-07-04T08:28:54.970Z,44.40
2017-07-04T08:31:22.474Z,44.40
2017-07-04T08:33:49.995Z,43.90
2017-07-04T08:36:17.495Z,43.50
2017-07-04T08:38:45.038Z,43.20
2017-07-04T08:41:13.319Z,42.40
2017-07-04T08:43:40.826Z,42.40
2017-07-04T08:46:08.525Z,42.30
2017-07-04T08:48:36.036Z,41.90
2017-07-04T08:51:03.570Z,41.60
2017-07-04T08:53:31.093Z,41.30
2017-07-04T08:55:58.595Z,40.00
2017-07-04T08:58:26.118Z,39.30
2017-07-04T09:00:53.610Z,39.20
2017-07-04T09:03:21.142Z,39.20
2017-07-04T09:05:49.415Z,38.40
2017-07-04T09:08:16.920Z,37.80
2017-07-04T09:10:44.447Z,37.70
2017-07-04T09:13:11.950Z,37.60
2017-07-04T09:15:39.515Z,37.90
2017-07-04T09:18:07.018Z,37.50
2017-07-04T09:20:34.513Z,37.30
2017-07-04T09:23:02.050Z,37.50
2017-07-04T09:25:29.554Z,37.30
2017-07-04T09:27:57.104Z,37.10
2017-07-04T09:30:24.602Z,37.00
2017-07-04T09:32:52.873Z,37.90
2017-07-04T09:35:20.409Z,37.80
2017-07-04T09:37:47.907Z,37.80
2017-07-04T09:40:15.431Z,38.00
2017-07-04T09:42:42.939Z,38.30
2017-07-04T09:45:10.446Z,38.60
2017-07-04T09:47:37.983Z,39.20
2017-07-04T09:50:05.505Z,39.20
2017-07-04T09:52:33.039Z,38.20
2017-07-04T09:55:01.339Z,38.80
2017-07-04T09:57:28.844Z,38.30
2017-07-04T09:59:56.365Z,38.30
2017-07-04T10:02:23.872Z,38.60
2017-07-04T10:04:51.396Z,39.30
2017-07-04T10:07:18.901Z,38.90
2017-07-04T10:09:46.402Z,37.50
2017-07-04T10:12:13.934Z,37.80
2017-07-04T10:14:41.445Z,37.40
2017-07-04T10:17:08.995Z,37.20
2017-07-04T10:19:36.558Z,37.40
2017-07-04T10:22:04.118Z,37.50
2017-07-04T10:24:31.648Z,37.60
2017-07-04T10:26:59.166Z,36.90
2017-07-04T10:29:26.698Z,36.20
2017-07-04T10:31:54.279Z,36.10
2017-07-04T10:34:21.798Z,36.20
2017-07-04T10:36:49.333Z,36.90
2017-07-04T10:39:16.875Z,36.00
2017-07-04T10:41:44.415Z,35.80
2017-07-04T10:44:12.022Z,36.60
2017-07-04T10:46:40.293Z,35.20
2017-07-04T10:49:08.575Z,35.70
2017-07-04T10:51:36.086Z,35.60
2017-07-04T10:54:03.636Z,35.40
2017-07-04T10:56:31.146Z,35.30
2017-07-04T10:58:59.410Z,34.60
2017-07-04T11:01:26.930Z,34.60
2017-07-04T11:03:54.439Z,34.00
2017-07-04T11:06:22.732Z,34.90
2017-07-04T11:08:50.239Z,34.80
2017-07-04T11:11:17.748Z,34.80
2017-07-04T11:13:45.282Z,35.10
2017-07-04T11:16:12.781Z,35.30
2017-07-04T11:18:40.301Z,34.80
2017-07-04T11:21:07.797Z,34.90
2017-07-04T11:23:35.307Z,34.00
2017-07-04T11:26:02.817Z,34.40
2017-07-04T11:28:30.329Z,34.50
2017-07-04T11:30:57.865Z,34.50
2017-07-04T11:33:25.373Z,34.30
2017-07-04T11:35:52.878Z,34.10
2017-07-04T11:38:20.406Z,34.30
2017-07-04T11:40:47.897Z,34.30
2017-07-04T11:43:15.424Z,33.30
2017-07-04T11:45:42.941Z,33.00
2017-07-04T11:48:10.451Z,32.90
2017-07-04T11:50:37.983Z,33.40
2017-07-04T11:53:06.251Z,33.90
2017-07-04T11:55:33.772Z,33.90
2017-07-04T11:58:01.275Z,33.80
2017-07-04T12:00:28.790Z,33.70
2017-07-04T12:02:56.328Z,34.00
2017-07-04T12:05:23.845Z,34.20
2017-07-04T12:07:52.159Z,31.60
2017-07-04T12:10:19.670Z,31.60
2017-07-04T12:12:47.174Z,31.50
2017-07-04T12:15:14.694Z,31.40
2017-07-04T12:17:42.204Z,31.60
2017-07-04T12:20:09.735Z,31.30
2017-07-04T12:22:37.233Z,30.90
2017-07-04T12:25:04.738Z,30.90
2017-07-04T12:27:33.020Z,30.90
2017-07-04T12:30:00.526Z,30.90
2017-07-04T12:32:28.065Z,31.00
2017-07-04T12:34:55.578Z,31.00
2017-07-04T12:37:23.084Z,31.40
2017-07-04T12:39:50.608Z,31.40
2017-07-04T12:42:18.884Z,31.70
2017-07-04T12:44:47.194Z,31.50
2017-07-04T12:47:14.708Z,31.30
2017-07-04T12:49:42.203Z,30.90
2017-07-04T12:52:09.743Z,30.80
2017-07-04T12:54:38.004Z,30.10
2017-07-04T12:57:05.539Z,30.10
2017-07-04T12:59:33.043Z,30.00
2017-07-04T13:02:00.565Z,30.20
2017-07-04T13:04:28.162Z,30.10
2017-07-04T13:06:56.428Z,30.00
2017-07-04T13:09:24.722Z,29.80
2017-07-04T13:11:52.271Z,29.80
2017-07-04T13:14:20.551Z,30.40
2017-07-04T13:16:48.067Z,30.30
2017-07-04T13:19:15.574Z,30.60
2017-07-04T13:21:43.866Z,29.90
2017-07-04T13:24:11.396Z,29.90
2017-07-04T13:26:38.910Z,30.10
2017-07-04T13:29:06.435Z,30.00
2017-07-04T13:31:33.937Z,30.50
2017-07-04T13:34:01.483Z,30.70
2017-07-04T13:36:28.991Z,30.90
2017-07-04T13:38:57.266Z,31.10
2017-07-04T13:41:25.570Z,31.20
2017-07-04T13:43:53.086Z,31.10
2017-07-04T13:46:20.611Z,30.80
2017-07-04T13:48:48.133Z,30.30
2017-07-04T13:51:16.426Z,30.10
2017-07-04T13:53:43.950Z,30.10
2017-07-04T13:56:11.463Z,29.80
2017-07-04T13:58:38.993Z,30.00
2017-07-04T14:01:06.504Z,30.00
2017-07-04T14:03:34.051Z,29.80
2017-07-04T14:06:01.558Z,29.70
2017-07-04T14:08:29.067Z,30.10
2017-07-04T14:10:56.599Z,31.30
2017-07-04T14:13:24.117Z,30.70
2017-07-04T14:15:51.646Z,29.90
2017-07-04T14:18:19.166Z,30.00
2017-07-04T14:20:47.430Z,30.10
2017-07-04T14:23:14.951Z,30.10
2017-07-04T14:25:42.452Z,30.40
2017-07-04T14:28:10.896Z,30.20
2017-07-04T14:30:38.417Z,30.20
2017-07-04T14:33:05.922Z,30.60
2017-07-04T14:35:33.453Z,30.30
2017-07-04T14:38:00.964Z,30.60
2017-07-04T14:40:28.506Z,30.80
2017-07-04T14:42:56.028Z,31.00
2017-07-04T14:45:23.537Z,30.80
2017-07-04T14:47:51.844Z,31.30
2017-07-04T14:50:19.371Z,31.20
2017-07-04T14:52:46.895Z,31.50
2017-07-04T14:55:14.403Z,31.60
2017-07-04T14:57:41.963Z,31.90
2017-07-04T15:00:10.236Z,31.60
2017-07-04T15:02:38.508Z,31.40
2017-07-04T15:05:06.799Z,31.80
2017-07-04T15:07:34.298Z,31.70
2017-07-04T15:10:01.835Z,31.50
2017-07-04T15:12:29.351Z,32.00
2017-07-04T15:14:56.869Z,32.00
2017-07-04T15:17:24.392Z,31.30
2017-07-04T15:19:52.663Z,31.50
2017-07-04T15:22:20.201Z,31.50
2017-07-04T15:24:47.707Z,31.50
2017-07-04T15:27:15.217Z,30.70
2017-07-04T15:29:42.730Z,30.60
2017-07-04T15:32:10.243Z,30.30
2017-07-04T15:34:37.765Z,30.40
2017-07-04T15:37:05.268Z,30.50
2017-07-04T15:39:33.559Z,30.70
2017-07-04T15:42:01.075Z,30.10
2017-07-04T15:44:28.583Z,30.00
2017-07-04T15:46:56.111Z,29.90
2017-07-04T15:49:23.632Z,29.70
2017-07-04T15:51:51.167Z,29.20
2017-07-04T15:54:18.685Z,29.00
2017-07-04T15:56:46.718Z,29.30
2017-07-04T15:59:14.227Z,29.20
2017-07-04T16:01:42.506Z,29.20
2017-07-04T16:04:10.811Z,29.20
2017-07-04T16:06:38.322Z,29.10
2017-07-04T16:09:05.863Z,29.30
2017-07-04T16:11:33.362Z,29.10
2017-07-04T16:14:01.635Z,29.70
2017-07-04T16:16:29.172Z,29.40
2017-07-04T16:18:56.696Z,29.40
2017-07-04T16:21:24.227Z,29.00
2017-07-04T16:23:52.503Z,28.20
2017-07-04T16:26:20.803Z,28.00
2017-07-04T16:28:48.323Z,28.00
2017-07-04T16:31:16.604Z,28.30
2017-07-04T16:33:44.903Z,27.70
2017-07-04T16:36:12.419Z,27.70
2017-07-04T16:38:39.959Z,27.80
2017-07-04T16:41:07.471Z,27.60
2017-07-04T16:43:34.991Z,27.20
2017-07-04T16:46:02.510Z,26.80
2017-07-04T16:48:30.028Z,26.70
2017-07-04T16:50:57.564Z,27.00
2017-07-04T16:53:25.091Z,26.70
2017-07-04T16:55:52.604Z,26.40
2017-07-04T16:58:20.136Z,26.50
2017-07-04T17:00:47.638Z,26.50
2017-07-04T17:03:15.170Z,26.60
2017-07-04T17:05:42.674Z,26.70
2017-07-04T17:08:10.181Z,26.90
2017-07-04T17:10:37.690Z,26.50
2017-07-04T17:13:05.199Z,26.70
2017-07-04T17:15:32.726Z,26.50
2017-07-04T17:18:00.236Z,26.40
2017-07-04T17:20:27.766Z,26.40
2017-07-04T17:22:55.274Z,26.70
2017-07-04T17:25:23.544Z,27.20
2017-07-04T17:27:51.081Z,27.10
2017-07-04T17:30:18.600Z,26.90
2017-07-04T17:32:46.139Z,27.10
2017-07-04T17:35:13.651Z,27.30
2017-07-04T17:37:41.162Z,27.40
2017-07-04T17:40:08.719Z,27.70
2017-07-04T17:42:36.231Z,27.50
2017-07-04T17:45:03.778Z,27.50
2017-07-04T17:47:31.296Z,27.90
2017-07-04T17:49:58.828Z,28.10
2017-07-04T17:52:26.365Z,28.70
2017-07-04T17:54:53.868Z,28.80
2017-07-04T17:57:21.403Z,29.00
2017-07-04T17:59:48.912Z,29.20
2017-07-04T18:02:16.431Z,29.40
2017-07-04T18:04:44.052Z,29.50
2017-07-04T18:07:11.585Z,29.40
2017-07-04T18:09:39.115Z,29.40
2017-07-04T18:12:07.419Z,30.10
2017-07-04T18:14:34.973Z,30.00
2017-07-04T18:17:02.671Z,30.20
2017-07-04T18:19:30.198Z,30.60
2017-07-04T18:21:57.762Z,30.90
2017-07-04T18:24:25.293Z,31.10
2017-07-04T18:26:53.592Z,32.00
2017-07-04T18:29:21.103Z,31.90
2017-07-04T18:31:48.604Z,32.40
2017-07-04T18:34:16.128Z,32.90
2017-07-04T18:36:43.634Z,33.10
2017-07-04T18:39:11.151Z,33.50
2017-07-04T18:41:38.655Z,33.90
2017-07-04T18:44:06.184Z,34.40
2017-07-04T18:46:34.466Z,35.60
2017-07-04T18:49:01.978Z,35.60
2017-07-04T18:51:29.503Z,35.60
2017-07-04T18:53:57.010Z,36.40
2017-07-04T18:56:24.525Z,36.80
2017-07-04T18:58:52.031Z,37.20
2017-07-04T19:01:19.542Z,37.60
2017-07-04T19:03:47.059Z,37.80
2017-07-04T19:06:14.558Z,38.10
2017-07-04T19:08:42.087Z,38.50
2017-07-04T19:11:09.590Z,38.70
2017-07-04T19:13:37.086Z,39.10
2017-07-04T19:16:04.624Z,39.40
2017-07-04T19:18:32.124Z,39.60
2017-07-04T19:21:00.453Z,40.60
2017-07-04T19:23:27.964Z,40.00
2017-07-04T19:25:55.509Z,40.30
2017-07-04T19:28:23.019Z,40.60
2017-07-04T19:30:50.514Z,40.90
2017-07-04T19:33:18.063Z,41.20
2017-07-04T19:35:45.573Z,41.40
2017-07-04T19:38:13.094Z,41.70
2017-07-04T19:40:40.615Z,41.90
2017-07-04T19:43:08.117Z,42.10
2017-07-04T19:45:35.631Z,42.20
2017-07-04T19:48:03.129Z,42.50
2017-07-04T19:50:30.646Z,42.70
2017-07-04T19:52:58.155Z,43.10
2017-07-04T19:55:25.655Z,43.40
2017-07-04T19:57:53.171Z,43.80
2017-07-04T20:00:20.681Z,44.30
2017-07-04T20:02:48.207Z,44.40
2017-07-04T20:05:16.527Z,45.00
2017-07-04T20:07:44.022Z,44.90
2017-07-04T20:10:11.559Z,45.00
2017-07-04T20:12:39.070Z,45.30
2017-07-04T20:15:07.365Z,45.70
2017-07-04T20:17:34.876Z,45.70
2017-07-04T20:20:02.377Z,46.00
2017-07-04T20:22:30.654Z,46.40
2017-07-04T20:24:58.158Z,46.20
2017-07-04T20:27:25.689Z,46.50
2017-07-04T20:29:53.194Z,46.60
2017-07-04T20:32:20.695Z,46.70
2017-07-04T20:34:48.215Z,47.20
2017-07-04T20:37:15.715Z,47.30
2017-07-04T20:39:43.243Z,47.50
2017-07-04T20:42:10.743Z,47.70
2017-07-04T20:44:38.256Z,47.80
2017-07-04T20:47:05.772Z,47.90
2017-07-04T20:49:33.275Z,47.70
2017-07-04T20:52:00.799Z,47.80
2017-07-04T20:54:28.310Z,48.10
2017-07-04T20:56:55.824Z,48.20
2017-07-04T20:59:23.338Z,48.40
2017-07-04T21:01:50.837Z,48.60
2017-07-04T21:04:18.360Z,48.40
2017-07-04T21:06:45.863Z,48.60
2017-07-04T21:09:14.362Z,48.70
2017-07-04T21:11:41.878Z,48.60
2017-07-04T21:14:09.378Z,48.60
2017-07-04T21:16:36.907Z,48.70
2017-07-04T21:19:04.425Z,48.60
2017-07-04T21:21:32.691Z,49.10
2017-07-04T21:24:00.984Z,49.20
2017-07-04T21:26:28.488Z,49.10
2017-07-04T21:28:56.030Z,49.40
2017-07-04T21:31:23.537Z,49.40
2017-07-04T21:33:51.051Z,49.60
2017-07-04T21:36:18.572Z,49.80
2017-07-04T21:38:46.849Z,50.00
2017-07-04T21:41:15.146Z,50.10
2017-07-04T21:43:42.642Z,50.10
2017-07-04T21:46:10.151Z,50.40
2017-07-04T21:48:37.686Z,50.70
2017-07-04T21:51:05.190Z,50.80
2017-07-04T21:53:32.712Z,50.90
2017-07-04T21:56:01.006Z,51.10
2017-07-04T21:58:28.511Z,51.00
2017-07-04T22:00:56.043Z,51.10
2017-07-04T22:03:23.573Z,51.30
2017-07-04T22:05:51.142Z,51.50
2017-07-04T22:08:18.647Z,51.60
2017-07-04T22:10:46.154Z,51.80
2017-07-04T22:13:13.671Z,51.80
2017-07-04T22:15:41.182Z,51.90
2017-07-04T22:18:08.718Z,52.10
2017-07-04T22:20:36.221Z,52.20
2017-07-04T22:23:03.725Z,52.50
2017-07-04T22:25:31.240Z,52.60
2017-07-04T22:27:58.747Z,52.60
2017-07-04T22:30:26.279Z,52.80
2017-07-04T22:32:53.783Z,52.90
2017-07-04T22:35:22.062Z,53.20
2017-07-04T22:37:50.351Z,53.20
2017-07-04T22:40:17.855Z,53.20
2017-07-04T22:42:45.391Z,53.30
2017-07-04T22:45:12.908Z,53.40
2017-07-04T22:47:41.186Z,53.40
2017-07-04T22:50:08.703Z,53.40
2017-07-04T22:52:36.214Z,53.40
2017-07-04T22:55:03.742Z,53.70
2017-07-04T22:57:31.246Z,53.70
2017-07-04T22:59:58.763Z,53.90
2017-07-04T23:02:26.282Z,54.10
2017-07-04T23:04:53.778Z,54.10
2017-07-04T23:07:21.313Z,54.10
2017-07-04T23:09:48.827Z,54.20
2017-07-04T23:12:17.102Z,54.30
2017-07-04T23:14:45.382Z,54.40
2017-07-04T23:17:12.883Z,54.40
2017-07-04T23:19:40.408Z,54.40
2017-07-04T23:22:07.919Z,54.40
2017-07-04T23:24:35.427Z,54.40
2017-07-04T23:27:02.938Z,54.40
2017-07-04T23:29:30.444Z,54.60
2017-07-04T23:31:58.012Z,54.80
2017-07-04T23:34:25.511Z,54.70
2017-07-04T23:36:53.010Z,54.60
2017-07-04T23:39:21.298Z,54.80
2017-07-04T23:41:48.811Z,54.80
2017-07-04T23:44:16.337Z,54.90
2017-07-04T23:46:43.855Z,55.00
2017-07-04T23:49:11.365Z,54.90
2017-07-04T23:51:38.906Z,55.00
2017-07-04T23:54:06.415Z,55.10
2017-07-04T23:56:33.967Z,55.20
2017-07-04T23:59:01.462Z,55.20
